Piney Grove, Arkansas
Current Conditions -  °F | °C
As of 9:56 AM on Tuesday 21 Oct 2014 (Local Time) from KADF Reporting Station
Clear Clear  
Wind Chill: 67°   Ceiling: Unl
Heat Index: 67°   Visibility: 10mi
Dew Point: 63°   Wind: 0mph
Humidity: 87%   Direction: NA
Pressure: 30.14"   Gusts: NA
Location:  34.0586°N, 93.5318°W
Report Text: KADF 211456Z AUTO 00000KT 10SM CLR 19/17 A3014 RMK AO2 51020 T01940172 SLP219
Loading
Personal Weather Stations






























Interactive Weather Map
Tropical Storm Tracking
New forecast layout! Learn more

10-Day Weather Forecast

Advertisements
Track Severe Weather on mobile